createdAt,value
2018-08-07T00:01:57.766Z,48.10
2018-08-07T00:04:27.942Z,48.20
2018-08-07T00:06:58.348Z,48.40
2018-08-07T00:09:28.502Z,49.40
2018-08-07T00:11:58.517Z,48.80
2018-08-07T00:14:29.181Z,48.80
2018-08-07T00:16:59.175Z,48.90
2018-08-07T00:19:29.414Z,49.20
2018-08-07T00:21:59.578Z,49.10
2018-08-07T00:24:29.761Z,49.40
2018-08-07T00:27:00.420Z,49.60
2018-08-07T00:29:30.368Z,49.50
2018-08-07T00:32:00.563Z,49.40
2018-08-07T00:34:30.940Z,49.50
2018-08-07T00:37:00.831Z,49.40
2018-08-07T00:39:30.839Z,49.60
2018-08-07T00:42:00.890Z,50.00
2018-08-07T00:44:30.857Z,49.90
2018-08-07T00:47:01.491Z,50.00
2018-08-07T00:49:31.462Z,49.80
2018-08-07T00:52:01.669Z,49.70
2018-08-07T00:54:32.139Z,49.60
2018-08-07T00:57:02.360Z,49.50
2018-08-07T00:59:32.280Z,49.60
2018-08-07T01:02:02.664Z,49.40
2018-08-07T01:04:32.615Z,49.60
2018-08-07T01:07:02.655Z,49.60
2018-08-07T01:09:33.324Z,49.50
2018-08-07T01:12:03.399Z,49.40
2018-08-07T01:14:33.323Z,49.30
2018-08-07T01:17:03.675Z,49.20
2018-08-07T01:19:33.756Z,49.40
2018-08-07T01:22:03.977Z,49.50
2018-08-07T01:24:34.319Z,49.50
2018-08-07T01:27:04.667Z,49.80
2018-08-07T01:29:34.666Z,50.00
2018-08-07T01:32:04.990Z,50.20
2018-08-07T01:34:34.945Z,50.40
2018-08-07T01:37:05.017Z,50.20
2018-08-07T01:39:35.622Z,49.50
2018-08-07T01:42:05.864Z,50.20
2018-08-07T01:44:35.783Z,50.50
2018-08-07T01:47:05.750Z,50.60
2018-08-07T01:49:35.713Z,50.80
2018-08-07T01:52:05.851Z,50.40
2018-08-07T01:54:35.838Z,50.80
2018-08-07T01:57:06.427Z,50.90
2018-08-07T01:59:36.337Z,51.00
2018-08-07T02:02:06.435Z,51.00
2018-08-07T02:04:36.407Z,51.80
2018-08-07T02:09:35.954Z,51.50
2018-08-07T02:12:06.148Z,51.40
2018-08-07T02:14:36.294Z,51.40
2018-08-07T02:17:07.367Z,51.30
2018-08-07T02:19:37.336Z,51.10
2018-08-07T02:24:37.253Z,51.80
2018-08-07T02:27:07.351Z,51.80
2018-08-07T02:29:37.225Z,51.60
2018-08-07T02:32:07.948Z,51.40
2018-08-07T02:34:38.035Z,51.50
2018-08-07T02:37:08.067Z,51.50
2018-08-07T02:39:38.011Z,51.40
2018-08-07T02:42:07.942Z,51.60
2018-08-07T02:44:37.867Z,51.60
2018-08-07T02:47:07.880Z,52.10
2018-08-07T02:49:37.782Z,52.50
2018-08-07T02:52:08.223Z,52.80
2018-08-07T02:54:38.213Z,52.80
2018-08-07T02:57:08.246Z,52.70
2018-08-07T02:59:38.467Z,53.00
2018-08-07T03:02:09.121Z,53.00
2018-08-07T03:04:39.031Z,52.90
2018-08-07T03:07:09.650Z,52.80
2018-08-07T03:09:39.548Z,52.80
2018-08-07T03:14:38.955Z,53.00
2018-08-07T03:19:38.125Z,53.40
2018-08-07T03:22:08.323Z,53.40
2018-08-07T03:24:38.217Z,53.20
2018-08-07T03:27:08.403Z,53.20
2018-08-07T03:29:38.357Z,54.20
2018-08-07T03:32:08.554Z,52.70
2018-08-07T03:34:38.601Z,53.20
2018-08-07T03:37:09.233Z,53.00
2018-08-07T03:39:39.140Z,53.00
2018-08-07T03:42:09.333Z,53.10
2018-08-07T03:44:39.387Z,52.40
2018-08-07T03:47:09.506Z,53.10
2018-08-07T03:49:39.493Z,53.10
2018-08-07T03:52:09.607Z,53.30
2018-08-07T03:54:39.481Z,53.50
2018-08-07T03:57:09.701Z,53.40
2018-08-07T03:59:39.773Z,53.20
2018-08-07T04:02:09.847Z,53.20
2018-08-07T04:04:39.799Z,53.20
2018-08-07T04:07:09.779Z,53.20
2018-08-07T04:09:39.780Z,53.20
2018-08-07T04:12:10.495Z,53.30
2018-08-07T04:14:40.443Z,53.30
2018-08-07T04:17:10.550Z,53.90
2018-08-07T04:19:40.523Z,53.30
2018-08-07T04:22:10.551Z,53.10
2018-08-07T04:24:40.447Z,53.00
2018-08-07T04:27:10.861Z,53.30
2018-08-07T04:29:40.873Z,53.00
2018-08-07T04:32:11.030Z,53.00
2018-08-07T04:34:40.965Z,54.20
2018-08-07T04:37:11.084Z,53.10
2018-08-07T04:39:41.006Z,53.10
2018-08-07T04:42:11.546Z,53.20
2018-08-07T04:44:42.103Z,53.00
2018-08-07T04:47:12.292Z,53.00
2018-08-07T04:49:42.307Z,52.70
2018-08-07T04:52:12.440Z,52.40
2018-08-07T04:54:42.450Z,52.40
2018-08-07T04:57:12.900Z,52.00
2018-08-07T04:59:42.771Z,51.90
2018-08-07T05:02:12.786Z,51.80
2018-08-07T05:04:42.944Z,51.60
2018-08-07T05:07:12.882Z,51.70
2018-08-07T05:09:43.000Z,52.10
2018-08-07T05:12:13.206Z,51.40
2018-08-07T05:14:43.258Z,51.10
2018-08-07T05:17:26.539Z,51.20
2018-08-07T05:19:56.528Z,50.90
2018-08-07T05:22:27.260Z,51.10
2018-08-07T05:24:57.339Z,50.80
2018-08-07T05:27:27.521Z,51.30
2018-08-07T05:29:58.360Z,51.20
2018-08-07T05:32:29.229Z,49.90
2018-08-07T05:35:00.055Z,47.20
2018-08-07T05:37:32.460Z,44.60
2018-08-07T05:40:02.854Z,42.40
2018-08-07T05:42:36.732Z,41.10
2018-08-07T05:45:08.877Z,40.40
2018-08-07T05:47:39.291Z,38.70
2018-08-07T05:50:13.307Z,38.30
2018-08-07T05:52:45.228Z,37.80
2018-08-07T05:55:17.131Z,36.50
2018-08-07T05:57:47.504Z,35.70
2018-08-07T06:00:19.549Z,35.10
2018-08-07T06:02:50.966Z,34.80
2018-08-07T06:05:21.311Z,34.60
2018-08-07T06:07:52.334Z,34.20
2018-08-07T06:10:22.614Z,33.90
2018-08-07T06:12:54.430Z,33.90
2018-08-07T06:17:54.116Z,34.30
2018-08-07T06:20:24.796Z,34.60
2018-08-07T06:22:55.264Z,35.00
2018-08-07T06:25:25.625Z,35.60
2018-08-07T06:27:56.228Z,37.10
2018-08-07T06:30:26.368Z,37.70
2018-08-07T06:32:56.411Z,38.80
2018-08-07T06:37:56.552Z,40.60
2018-08-07T06:40:27.609Z,41.90
2018-08-07T06:42:57.840Z,41.80
2018-08-07T06:45:28.281Z,42.30
2018-08-07T06:47:58.435Z,42.60
2018-08-07T06:50:29.044Z,43.10
2018-08-07T06:52:59.484Z,43.40
2018-08-07T06:55:29.900Z,43.80
2018-08-07T06:58:00.041Z,43.70
2018-08-07T07:00:31.223Z,43.80
2018-08-07T07:03:04.712Z,43.60
2018-08-07T07:05:35.177Z,43.80
2018-08-07T07:08:07.723Z,43.60
2018-08-07T07:10:37.941Z,43.90
2018-08-07T07:13:09.386Z,44.00
2018-08-07T07:15:40.316Z,43.80
2018-08-07T07:18:10.331Z,43.80
2018-08-07T07:20:41.042Z,43.90
2018-08-07T07:23:11.887Z,43.90
2018-08-07T07:25:42.403Z,43.80
2018-08-07T07:28:13.027Z,43.90
2018-08-07T07:30:43.284Z,43.90
2018-08-07T07:33:13.578Z,44.30
2018-08-07T07:35:43.725Z,44.20
2018-08-07T07:38:14.713Z,44.50
2018-08-07T07:40:45.045Z,43.90
2018-08-07T07:43:15.528Z,43.60
2018-08-07T07:45:46.071Z,42.80
2018-08-07T07:48:16.194Z,42.00
2018-08-07T07:50:46.520Z,42.20
2018-08-07T07:53:17.434Z,41.60
2018-08-07T07:55:48.923Z,40.30
2018-08-07T07:58:19.286Z,39.80
2018-08-07T08:00:49.471Z,39.40
2018-08-07T08:03:20.080Z,39.50
2018-08-07T08:05:50.536Z,39.30
2018-08-07T08:08:20.940Z,38.60
2018-08-07T08:10:53.650Z,38.80
2018-08-07T08:13:24.798Z,38.70
2018-08-07T08:15:55.054Z,38.30
2018-08-07T08:18:25.925Z,38.50
2018-08-07T08:20:56.356Z,38.50
2018-08-07T08:23:26.532Z,38.30
2018-08-07T08:25:58.900Z,37.80
2018-08-07T08:28:29.795Z,38.10
2018-08-07T08:30:59.919Z,38.00
2018-08-07T08:33:37.750Z,37.80
2018-08-07T08:36:07.933Z,37.80
2018-08-07T08:38:38.096Z,38.40
2018-08-07T08:41:08.737Z,37.40
2018-08-07T08:43:39.398Z,36.50
2018-08-07T08:46:10.605Z,35.90
2018-08-07T08:48:41.710Z,35.50
2018-08-07T08:51:11.758Z,35.30
2018-08-07T08:53:41.826Z,35.30
2018-08-07T08:56:12.275Z,35.80
2018-08-07T08:58:43.927Z,35.80
2018-08-07T09:01:14.562Z,35.80
2018-08-07T09:03:45.359Z,35.30
2018-08-07T09:06:16.191Z,34.70
2018-08-07T09:08:46.690Z,34.30
2018-08-07T09:11:17.709Z,33.10
2018-08-07T09:13:48.816Z,33.90
2018-08-07T09:16:20.447Z,33.00
2018-08-07T09:18:54.052Z,33.20
2018-08-07T09:21:24.791Z,33.80
2018-08-07T09:23:55.184Z,33.80
2018-08-07T09:26:25.999Z,33.90
2018-08-07T09:28:56.660Z,33.80
2018-08-07T09:31:27.402Z,33.80
2018-08-07T09:33:58.586Z,33.40
2018-08-07T09:36:29.583Z,33.50
2018-08-07T09:39:01.127Z,33.70
2018-08-07T09:41:32.538Z,33.10
2018-08-07T09:44:04.503Z,32.90
2018-08-07T09:46:34.976Z,33.30
2018-08-07T09:49:06.698Z,33.40
2018-08-07T09:51:41.535Z,32.70
2018-08-07T09:54:11.981Z,32.90
2018-08-07T09:56:42.914Z,32.80
2018-08-07T09:59:13.813Z,32.60
2018-08-07T10:01:50.589Z,33.00
2018-08-07T10:04:22.519Z,32.60
2018-08-07T10:06:53.504Z,32.40
2018-08-07T10:09:24.171Z,32.50
2018-08-07T10:11:54.432Z,32.00
2018-08-07T10:14:28.992Z,32.00
2018-08-07T10:17:00.056Z,32.00
2018-08-07T10:19:30.543Z,32.30
2018-08-07T10:22:02.655Z,32.20
2018-08-07T10:24:35.408Z,32.20
2018-08-07T10:27:07.648Z,32.30
2018-08-07T10:29:38.408Z,31.80
2018-08-07T10:32:11.978Z,31.90
2018-08-07T10:34:42.463Z,31.70
2018-08-07T10:37:12.875Z,31.30
2018-08-07T10:39:45.003Z,29.80
2018-08-07T10:42:15.431Z,29.90
2018-08-07T10:44:45.942Z,30.20
2018-08-07T10:47:16.628Z,30.40
2018-08-07T10:49:47.054Z,27.90
2018-08-07T10:52:17.121Z,27.30
2018-08-07T10:54:47.779Z,26.60
2018-08-07T10:57:18.151Z,26.90
2018-08-07T10:59:50.126Z,27.10
2018-08-07T11:02:20.408Z,26.50
2018-08-07T11:04:55.141Z,27.60
2018-08-07T11:07:27.777Z,27.60
2018-08-07T11:10:00.726Z,28.20
2018-08-07T11:12:32.669Z,27.20
2018-08-07T11:15:03.383Z,27.10
2018-08-07T11:17:34.363Z,24.80
2018-08-07T11:20:10.310Z,24.50
2018-08-07T11:22:40.672Z,25.30
2018-08-07T11:25:14.265Z,25.60
2018-08-07T11:27:45.940Z,26.10
2018-08-07T11:30:20.493Z,27.10
2018-08-07T11:32:51.283Z,27.50
2018-08-07T11:35:22.353Z,27.90
2018-08-07T11:37:54.352Z,27.50
2018-08-07T11:40:26.192Z,26.20
2018-08-07T11:42:57.651Z,25.90
2018-08-07T11:45:31.501Z,25.90
2018-08-07T11:48:01.764Z,25.20
2018-08-07T11:50:34.165Z,25.20
2018-08-07T11:53:04.937Z,26.30
2018-08-07T11:55:35.758Z,26.30
2018-08-07T11:58:07.890Z,25.70
2018-08-07T12:00:41.116Z,25.70
2018-08-07T12:03:14.516Z,26.50
2018-08-07T12:05:46.668Z,26.30
2018-08-07T12:08:18.201Z,26.30
2018-08-07T12:10:49.000Z,25.90
2018-08-07T12:13:19.497Z,25.80
2018-08-07T12:15:50.517Z,25.50
2018-08-07T12:18:22.357Z,25.70
2018-08-07T12:20:52.421Z,25.60
2018-08-07T12:23:22.770Z,25.30
2018-08-07T12:25:52.917Z,25.30
2018-08-07T12:28:23.852Z,25.30
2018-08-07T12:30:54.959Z,25.10
2018-08-07T12:33:25.188Z,23.80
2018-08-07T12:35:55.741Z,23.10
2018-08-07T12:38:26.361Z,23.30
2018-08-07T12:40:58.167Z,24.50
2018-08-07T12:43:29.285Z,24.90
2018-08-07T12:45:59.795Z,25.00
2018-08-07T12:48:31.175Z,24.90
2018-08-07T12:51:01.633Z,25.10
2018-08-07T12:53:32.323Z,22.80
2018-08-07T12:56:03.584Z,22.90
2018-08-07T12:58:34.767Z,23.40
2018-08-07T13:01:05.564Z,23.90
2018-08-07T13:03:36.476Z,23.60
2018-08-07T13:06:07.501Z,24.30
2018-08-07T13:08:37.847Z,24.80
2018-08-07T13:11:08.108Z,24.60
2018-08-07T13:13:39.230Z,24.10
2018-08-07T13:16:09.661Z,24.20
2018-08-07T13:18:41.218Z,24.60
2018-08-07T13:21:11.381Z,23.90
2018-08-07T13:23:41.599Z,23.60
2018-08-07T13:26:12.225Z,23.00
2018-08-07T13:28:42.592Z,23.50
2018-08-07T13:31:13.364Z,24.70
2018-08-07T13:33:44.756Z,24.80
2018-08-07T13:36:15.226Z,24.60
2018-08-07T13:38:45.795Z,23.90
2018-08-07T13:41:16.233Z,23.80
2018-08-07T13:43:46.876Z,23.90
2018-08-07T13:46:17.386Z,23.90
2018-08-07T13:48:48.295Z,24.00
2018-08-07T13:51:18.665Z,23.80
2018-08-07T13:54:00.760Z,23.90
2018-08-07T13:56:30.979Z,23.70
2018-08-07T13:59:02.032Z,24.00
2018-08-07T14:01:32.652Z,24.00
2018-08-07T14:04:04.175Z,23.50
2018-08-07T14:06:34.429Z,23.80
2018-08-07T14:09:05.285Z,23.60
2018-08-07T14:11:35.641Z,23.90
2018-08-07T14:16:36.700Z,24.90
2018-08-07T14:19:07.733Z,24.90
2018-08-07T14:21:37.936Z,24.70
2018-08-07T14:24:08.180Z,24.70
2018-08-07T14:29:07.731Z,25.20
2018-08-07T14:31:38.038Z,25.20
2018-08-07T14:34:09.460Z,25.20
2018-08-07T14:36:39.786Z,25.30
2018-08-07T14:39:11.417Z,25.50
2018-08-07T14:41:41.709Z,25.60
2018-08-07T14:44:12.009Z,25.80
2018-08-07T14:46:43.204Z,26.00
2018-08-07T14:49:13.642Z,25.70
2018-08-07T14:51:43.703Z,25.20
2018-08-07T14:54:14.890Z,25.00
2018-08-07T14:56:46.211Z,25.10
2018-08-07T14:59:16.459Z,25.10
2018-08-07T15:01:46.744Z,25.50
2018-08-07T15:04:17.145Z,25.80
2018-08-07T15:06:47.158Z,25.80
2018-08-07T15:09:17.192Z,25.30
2018-08-07T15:11:47.827Z,25.30
2018-08-07T15:14:18.015Z,25.40
2018-08-07T15:16:48.612Z,25.40
2018-08-07T15:19:19.076Z,25.00
2018-08-07T15:21:49.764Z,24.80
2018-08-07T15:24:20.100Z,25.10
2018-08-07T15:26:51.011Z,25.20
2018-08-07T15:29:22.021Z,25.20
2018-08-07T15:31:52.491Z,25.40
2018-08-07T15:34:23.766Z,25.90
2018-08-07T15:36:54.730Z,26.00
2018-08-07T15:39:25.439Z,25.50
2018-08-07T15:41:57.623Z,25.20
2018-08-07T15:44:28.141Z,25.10
2018-08-07T15:46:58.506Z,25.10
2018-08-07T15:49:29.265Z,25.00
2018-08-07T15:51:59.641Z,24.90
2018-08-07T15:54:30.267Z,25.10
2018-08-07T15:57:04.316Z,25.10
2018-08-07T15:59:35.404Z,25.20
2018-08-07T16:02:07.182Z,25.10
2018-08-07T16:04:37.521Z,25.30
2018-08-07T16:07:08.373Z,25.60
2018-08-07T16:09:42.115Z,25.60
2018-08-07T16:12:13.542Z,26.00
2018-08-07T16:14:48.739Z,26.30
2018-08-07T16:17:19.351Z,26.50
2018-08-07T16:19:53.772Z,26.60
2018-08-07T16:22:24.286Z,26.60
2018-08-07T16:24:54.809Z,26.70
2018-08-07T16:27:25.524Z,26.70
2018-08-07T16:29:56.089Z,26.70
2018-08-07T16:32:27.201Z,26.50
2018-08-07T16:34:57.570Z,26.40
2018-08-07T16:37:27.925Z,26.70
2018-08-07T16:39:58.526Z,26.70
2018-08-07T16:42:28.663Z,26.80
2018-08-07T16:44:59.346Z,26.20
2018-08-07T16:49:59.915Z,25.80
2018-08-07T16:52:30.226Z,25.60
2018-08-07T16:55:00.607Z,25.60
2018-08-07T16:57:31.175Z,25.60
2018-08-07T17:00:01.745Z,25.40
2018-08-07T17:02:32.685Z,25.20
2018-08-07T17:05:03.689Z,24.80
2018-08-07T17:07:33.757Z,25.00
2018-08-07T17:10:07.440Z,25.90
2018-08-07T17:12:41.747Z,26.20
2018-08-07T17:15:12.422Z,26.30
2018-08-07T17:17:44.004Z,26.00
2018-08-07T17:20:17.152Z,25.90
2018-08-07T17:22:49.242Z,25.80
2018-08-07T17:25:20.744Z,25.90
2018-08-07T17:27:54.261Z,25.60
2018-08-07T17:30:27.974Z,25.60
2018-08-07T17:32:58.881Z,25.80
2018-08-07T17:35:29.331Z,25.80
2018-08-07T17:38:00.272Z,25.90
2018-08-07T17:40:31.145Z,25.90
2018-08-07T17:43:01.515Z,25.80
2018-08-07T17:45:32.356Z,26.10
2018-08-07T17:48:03.760Z,26.30
2018-08-07T17:50:34.264Z,26.50
2018-08-07T17:53:04.949Z,26.50
2018-08-07T17:55:37.556Z,26.80
2018-08-07T17:58:07.700Z,27.10
2018-08-07T18:00:38.321Z,27.50
2018-08-07T18:03:09.752Z,27.40
2018-08-07T18:05:40.758Z,27.60
2018-08-07T18:08:11.453Z,27.90
2018-08-07T18:10:42.566Z,28.00
2018-08-07T18:13:13.994Z,28.30
2018-08-07T18:15:45.212Z,28.80
2018-08-07T18:18:15.367Z,28.90
2018-08-07T18:20:45.533Z,29.10
2018-08-07T18:23:15.886Z,29.40
2018-08-07T18:25:46.379Z,29.90
2018-08-07T18:28:16.733Z,30.20
2018-08-07T18:30:47.200Z,30.40
2018-08-07T18:33:17.490Z,30.70
2018-08-07T18:35:47.914Z,30.70
2018-08-07T18:38:19.097Z,30.90
2018-08-07T18:40:49.349Z,31.10
2018-08-07T18:43:19.615Z,31.30
2018-08-07T18:45:50.071Z,31.30
2018-08-07T18:48:20.269Z,31.30
2018-08-07T18:50:51.163Z,31.80
2018-08-07T18:53:21.825Z,32.00
2018-08-07T18:55:51.820Z,32.50
2018-08-07T18:58:22.334Z,33.10
2018-08-07T19:00:53.110Z,33.30
2018-08-07T19:03:23.605Z,33.00
2018-08-07T19:05:54.097Z,32.90
2018-08-07T19:08:25.636Z,32.80
2018-08-07T19:10:55.776Z,32.90
2018-08-07T19:13:26.120Z,33.00
2018-08-07T19:15:56.831Z,33.10
2018-08-07T19:18:27.260Z,33.10
2018-08-07T19:20:57.417Z,33.30
2018-08-07T19:23:28.101Z,33.60
2018-08-07T19:25:58.259Z,34.00
2018-08-07T19:28:28.521Z,34.10
2018-08-07T19:30:58.876Z,33.70
2018-08-07T19:33:28.947Z,34.20
2018-08-07T19:35:59.149Z,34.40
2018-08-07T19:38:29.795Z,34.50
2018-08-07T19:41:00.130Z,34.70
2018-08-07T19:43:30.640Z,35.30
2018-08-07T19:46:00.753Z,35.80
2018-08-07T19:48:31.432Z,36.20
2018-08-07T19:51:01.869Z,36.20
2018-08-07T19:53:32.406Z,36.10
2018-08-07T19:56:03.042Z,36.70
2018-08-07T19:58:33.764Z,36.90
2018-08-07T20:01:07.141Z,36.90
2018-08-07T20:03:37.668Z,37.00
2018-08-07T20:06:08.295Z,37.10
2018-08-07T20:08:38.461Z,37.40
2018-08-07T20:11:08.642Z,37.40
2018-08-07T20:13:39.258Z,37.50
2018-08-07T20:16:09.510Z,37.50
2018-08-07T20:18:39.671Z,37.60
2018-08-07T20:21:10.172Z,37.50
2018-08-07T20:23:40.602Z,37.60
2018-08-07T20:26:11.132Z,38.10
2018-08-07T20:28:41.757Z,38.00
2018-08-07T20:31:12.027Z,38.00
2018-08-07T20:33:43.613Z,38.10
2018-08-07T20:36:13.746Z,38.20
2018-08-07T20:38:44.135Z,38.30
2018-08-07T20:41:14.671Z,38.40
2018-08-07T20:43:44.801Z,38.40
2018-08-07T20:46:15.056Z,38.30
2018-08-07T20:48:45.547Z,37.80
2018-08-07T20:51:15.668Z,38.30
2018-08-07T20:53:46.139Z,38.70
2018-08-07T20:56:16.596Z,38.80
2018-08-07T20:58:46.715Z,39.00
2018-08-07T21:01:17.181Z,38.80
2018-08-07T21:03:47.986Z,38.80
2018-08-07T21:06:18.254Z,38.90
2018-08-07T21:08:48.237Z,39.20
2018-08-07T21:11:18.757Z,38.80
2018-08-07T21:13:48.819Z,38.60
2018-08-07T21:16:18.945Z,39.80
2018-08-07T21:18:49.532Z,40.40
2018-08-07T21:21:19.680Z,40.70
2018-08-07T21:23:49.708Z,40.30
2018-08-07T21:26:20.059Z,40.00
2018-08-07T21:28:50.006Z,40.20
2018-08-07T21:31:19.960Z,40.10
2018-08-07T21:33:50.274Z,39.80
2018-08-07T21:36:20.321Z,40.20
2018-08-07T21:38:50.282Z,40.20
2018-08-07T21:41:20.783Z,40.10
2018-08-07T21:43:51.844Z,40.40
2018-08-07T21:46:22.045Z,40.20
2018-08-07T21:48:52.836Z,40.20
2018-08-07T21:51:23.039Z,40.20
2018-08-07T21:53:53.188Z,40.30
2018-08-07T21:56:23.238Z,40.40
2018-08-07T21:58:53.314Z,40.50
2018-08-07T22:01:23.459Z,40.30
2018-08-07T22:03:53.534Z,40.80
2018-08-07T22:06:23.604Z,41.00
2018-08-07T22:08:53.782Z,41.00
2018-08-07T22:11:24.024Z,41.20
2018-08-07T22:13:53.974Z,41.30
2018-08-07T22:16:24.405Z,41.50
2018-08-07T22:18:54.722Z,42.10
2018-08-07T22:21:24.939Z,42.40
2018-08-07T22:23:54.948Z,43.10
2018-08-07T22:26:25.329Z,43.30
2018-08-07T22:28:55.443Z,43.40
2018-08-07T22:31:26.119Z,43.50
2018-08-07T22:33:56.159Z,43.90
2018-08-07T22:36:26.196Z,43.80
2018-08-07T22:38:56.530Z,44.40
2018-08-07T22:41:26.818Z,44.40
2018-08-07T22:43:57.031Z,44.80
2018-08-07T22:46:27.515Z,44.50
2018-08-07T22:48:57.533Z,43.70
2018-08-07T22:51:28.477Z,44.70
2018-08-07T22:53:58.841Z,44.70
2018-08-07T22:58:58.347Z,45.00
2018-08-07T23:01:28.874Z,45.50
2018-08-07T23:03:58.796Z,45.90
2018-08-07T23:06:28.829Z,45.80
2018-08-07T23:08:59.212Z,45.40
2018-08-07T23:11:29.163Z,45.10
2018-08-07T23:13:59.186Z,45.00
2018-08-07T23:16:30.341Z,44.80
2018-08-07T23:23:59.029Z,44.90
2018-08-07T23:26:29.562Z,45.40
2018-08-07T23:28:59.484Z,46.30
2018-08-07T23:31:29.412Z,46.60
2018-08-07T23:33:59.400Z,46.50
2018-08-07T23:36:29.628Z,46.20
2018-08-07T23:38:59.581Z,46.00
2018-08-07T23:41:29.549Z,46.10
2018-08-07T23:44:47.844Z,46.60
2018-08-07T23:47:17.859Z,47.30
2018-08-07T23:49:47.859Z,47.20
2018-08-07T23:52:18.274Z,47.20
2018-08-07T23:54:48.198Z,47.60
2018-08-07T23:57:18.292Z,47.40
2018-08-07T23:59:48.622Z,47.00
